Popejoy, Iowa
Current Conditions -  °F | °C
As of 4:55 AM on Friday 19 Dec 2014 (Local Time) from KIFA Reporting Station
Overcast Overcast  
Wind Chill: 26°   Ceiling: 2300
Heat Index: 26°   Visibility: 10mi
Dew Point: 22°   Wind: 3mph
Humidity: 87%   Direction: 150°SSE
Pressure: 30.25"   Gusts: NA
Location:  42.59°N, 93.43°W
Report Text: KIFA 191055Z AUTO 15003KT 10SM OVC023 M04/M05 A3025 RMK AO2 T10361055
Loading
Personal Weather Stations






























Interactive Weather Map New forecast layout! Learn more

10-Day Weather Forecast

Advertisements
Track Severe Weather on mobile